createdAt,value
2022-10-29T00:01:37.870Z,6.00
2022-10-29T00:04:08.117Z,8.60
2022-10-29T00:06:38.207Z,10.98
2022-10-29T00:09:08.238Z,12.27
2022-10-29T00:11:38.322Z,16.35
2022-10-29T00:14:08.296Z,16.45
2022-10-29T00:16:39.827Z,6.15
2022-10-29T00:19:10.547Z,11.88
2022-10-29T00:21:41.623Z,16.67
2022-10-29T00:24:12.173Z,10.50
2022-10-29T00:26:42.366Z,8.13
2022-10-29T00:29:12.410Z,18.45
2022-10-29T00:31:42.532Z,6.30
2022-10-29T00:34:12.585Z,19.08
2022-10-29T00:36:42.560Z,15.00
2022-10-29T00:39:15.360Z,9.20
2022-10-29T00:41:45.447Z,8.82
2022-10-29T00:44:15.528Z,15.15
2022-10-29T00:46:49.936Z,13.23
2022-10-29T00:49:19.995Z,21.27
2022-10-29T00:51:50.019Z,18.48
2022-10-29T00:54:20.004Z,22.02
2022-10-29T00:56:54.216Z,14.77
2022-10-29T00:59:24.376Z,17.75
2022-10-29T01:01:55.102Z,15.10
2022-10-29T01:04:25.466Z,10.02
2022-10-29T01:06:55.456Z,8.35
2022-10-29T01:09:25.505Z,17.63
2022-10-29T01:12:13.587Z,10.70
2022-10-29T01:14:49.641Z,14.25
2022-10-29T01:17:37.981Z,6.67
2022-10-29T01:20:26.494Z,19.90
2022-10-29T01:23:08.286Z,13.93
2022-10-29T01:26:04.493Z,10.98
2022-10-29T01:28:43.756Z,13.52
2022-10-29T01:31:16.646Z,13.23
2022-10-29T01:33:46.587Z,13.75
2022-10-29T01:36:18.631Z,16.55
2022-10-29T01:38:56.106Z,13.27
2022-10-29T01:41:28.341Z,14.65
2022-10-29T01:44:00.571Z,10.77
2022-10-29T01:46:32.505Z,16.85
2022-10-29T01:49:04.010Z,7.47
2022-10-29T01:51:34.787Z,9.95
2022-10-29T01:54:04.733Z,11.27
2022-10-29T01:56:34.664Z,13.27
2022-10-29T01:59:05.246Z,12.15
2022-10-29T02:02:13.967Z,11.15
2022-10-29T02:04:56.415Z,18.88
2022-10-29T02:07:32.238Z,12.88
2022-10-29T02:10:08.026Z,8.55
2022-10-29T02:12:47.025Z,11.02
2022-10-29T02:15:20.048Z,10.27
2022-10-29T02:17:50.031Z,9.57
2022-10-29T02:20:20.064Z,10.13
2022-10-29T02:22:50.078Z,21.50
2022-10-29T02:25:20.333Z,13.65
2022-10-29T02:27:50.549Z,20.38
2022-10-29T02:30:20.607Z,11.68
2022-10-29T02:32:50.590Z,16.25
2022-10-29T02:35:20.590Z,12.27
2022-10-29T02:37:50.707Z,16.52
2022-10-29T02:40:20.767Z,12.95
2022-10-29T02:42:50.783Z,19.88
2022-10-29T02:45:20.815Z,17.55
2022-10-29T02:47:50.782Z,11.23
2022-10-29T02:50:20.789Z,16.38
2022-10-29T02:52:50.776Z,8.10
2022-10-29T02:55:20.803Z,11.23
2022-10-29T02:57:50.717Z,11.82
2022-10-29T03:00:20.707Z,9.43
2022-10-29T03:02:52.894Z,16.40
2022-10-29T03:05:22.975Z,13.45
2022-10-29T03:07:52.979Z,14.07
2022-10-29T03:10:23.025Z,14.02
2022-10-29T03:12:53.161Z,9.73
2022-10-29T03:15:23.215Z,12.25
2022-10-29T03:17:53.378Z,14.05
2022-10-29T03:20:23.599Z,13.82
2022-10-29T03:22:53.547Z,19.02
2022-10-29T03:25:23.495Z,18.90
2022-10-29T03:27:53.879Z,15.50
2022-10-29T03:30:23.986Z,15.30
2022-10-29T03:32:54.328Z,21.25
2022-10-29T03:35:24.570Z,12.43
2022-10-29T03:37:54.701Z,19.23
2022-10-29T03:40:24.649Z,22.20
2022-10-29T03:42:54.879Z,16.65
2022-10-29T03:45:25.240Z,19.27
2022-10-29T03:47:55.596Z,14.40
2022-10-29T03:50:25.835Z,18.85
2022-10-29T03:52:55.804Z,15.73
2022-10-29T03:55:25.941Z,20.77
2022-10-29T03:57:56.117Z,15.10
2022-10-29T04:00:26.378Z,14.52
2022-10-29T04:02:56.662Z,14.27
2022-10-29T04:05:26.844Z,10.60
2022-10-29T04:07:56.796Z,13.95
2022-10-29T04:10:27.983Z,16.35
2022-10-29T04:12:58.304Z,12.65
2022-10-29T04:15:28.477Z,10.77
2022-10-29T04:17:58.599Z,20.33
2022-10-29T04:21:03.103Z,11.38
2022-10-29T04:28:59.510Z,16.00
2022-10-29T04:31:29.486Z,15.38
2022-10-29T04:33:59.566Z,12.43
2022-10-29T04:36:29.475Z,17.25
2022-10-29T04:38:59.485Z,18.88
2022-10-29T04:41:29.543Z,12.63
2022-10-29T04:43:59.624Z,15.15
2022-10-29T04:46:29.714Z,16.92
2022-10-29T04:48:59.793Z,24.17
2022-10-29T04:51:30.031Z,17.05
2022-10-29T04:54:00.006Z,9.43
2022-10-29T04:56:31.445Z,11.40
2022-10-29T04:59:01.440Z,11.85
2022-10-29T05:01:32.257Z,16.63
2022-10-29T05:04:02.353Z,12.73
2022-10-29T05:06:32.310Z,15.00
2022-10-29T05:09:02.843Z,13.98
2022-10-29T05:11:33.228Z,15.55
2022-10-29T05:14:03.215Z,15.63
2022-10-29T05:16:33.968Z,13.43
2022-10-29T05:19:04.998Z,20.95
2022-10-29T05:21:34.999Z,16.20
2022-10-29T05:24:05.089Z,11.57
2022-10-29T05:26:35.117Z,12.98
2022-10-29T05:29:05.161Z,12.60
2022-10-29T05:31:35.110Z,12.82
2022-10-29T05:34:05.197Z,17.35
2022-10-29T05:36:35.252Z,10.05
2022-10-29T05:39:05.178Z,20.27
2022-10-29T05:41:35.287Z,13.00
2022-10-29T05:44:05.329Z,18.08
2022-10-29T05:46:35.292Z,18.50
2022-10-29T05:49:05.360Z,18.13
2022-10-29T05:51:35.363Z,17.88
2022-10-29T05:54:05.365Z,12.52
2022-10-29T05:56:35.430Z,13.90
2022-10-29T05:59:05.603Z,11.27
2022-10-29T06:01:35.773Z,16.88
2022-10-29T06:04:05.940Z,14.27
2022-10-29T06:06:36.082Z,13.88
2022-10-29T06:09:06.490Z,9.95
2022-10-29T06:11:36.533Z,22.83
2022-10-29T06:14:06.547Z,9.07
2022-10-29T06:16:36.596Z,15.25
2022-10-29T06:19:06.912Z,15.35
2022-10-29T06:21:37.040Z,21.98
2022-10-29T06:24:07.340Z,15.90
2022-10-29T06:26:38.681Z,18.90
2022-10-29T06:29:10.392Z,16.17
2022-10-29T06:31:40.407Z,7.18
2022-10-29T06:34:10.726Z,7.00
2022-10-29T06:36:40.698Z,11.77
2022-10-29T06:39:10.824Z,6.97
2022-10-29T06:41:40.860Z,11.65
2022-10-29T06:44:10.743Z,15.30
2022-10-29T06:46:42.781Z,8.45
2022-10-29T06:49:12.858Z,10.68
2022-10-29T06:51:42.825Z,6.57
2022-10-29T06:54:13.617Z,12.48
2022-10-29T06:56:43.602Z,12.18
2022-10-29T06:59:13.564Z,22.52
2022-10-29T07:01:43.591Z,22.48
2022-10-29T07:04:13.566Z,18.17
2022-10-29T07:06:43.561Z,22.40
2022-10-29T07:09:13.498Z,14.10
2022-10-29T07:11:43.486Z,15.05
2022-10-29T07:14:13.430Z,16.02
2022-10-29T07:16:43.411Z,11.20
2022-10-29T07:19:13.476Z,10.55
2022-10-29T07:21:46.024Z,13.20
2022-10-29T07:24:18.768Z,8.77
2022-10-29T07:26:48.866Z,13.15
2022-10-29T07:29:19.066Z,18.92
2022-10-29T07:31:49.073Z,8.45
2022-10-29T07:34:19.146Z,11.07
2022-10-29T07:36:49.137Z,21.30
2022-10-29T07:39:19.305Z,9.60
2022-10-29T07:41:49.301Z,19.90
2022-10-29T07:44:19.350Z,7.72
2022-10-29T07:46:49.852Z,14.68
2022-10-29T07:49:20.121Z,21.25
2022-10-29T07:51:50.550Z,11.55
2022-10-29T07:54:20.695Z,22.10
2022-10-29T07:56:50.629Z,14.82
2022-10-29T07:59:20.612Z,10.98
2022-10-29T08:01:50.615Z,15.35
2022-10-29T08:04:20.708Z,18.38
2022-10-29T08:06:50.784Z,16.08
2022-10-29T08:09:20.817Z,19.20
2022-10-29T08:11:50.921Z,21.88
2022-10-29T08:14:22.805Z,19.40
2022-10-29T08:16:55.821Z,14.70
2022-10-29T08:19:26.106Z,17.70
2022-10-29T08:21:56.027Z,24.10
2022-10-29T08:24:25.999Z,22.30
2022-10-29T08:26:56.491Z,21.00
2022-10-29T08:29:26.523Z,25.00
2022-10-29T08:31:56.487Z,22.38
2022-10-29T08:34:26.475Z,18.63
2022-10-29T08:36:56.471Z,15.25
2022-10-29T08:39:26.548Z,24.65
2022-10-29T08:42:28.593Z,20.33
2022-10-29T08:45:07.786Z,22.27
2022-10-29T08:47:44.472Z,19.92
2022-10-29T08:50:18.366Z,22.70
2022-10-29T08:52:58.883Z,17.25
2022-10-29T08:55:39.137Z,26.00
2022-10-29T08:58:24.439Z,27.83
2022-10-29T09:00:55.448Z,20.58
2022-10-29T09:03:27.227Z,17.20
2022-10-29T09:05:57.279Z,19.50
2022-10-29T09:08:30.674Z,22.42
2022-10-29T09:11:02.450Z,13.98
2022-10-29T09:13:45.066Z,18.27
2022-10-29T09:16:15.203Z,19.13
2022-10-29T09:18:49.023Z,17.55
2022-10-29T09:21:23.573Z,21.10
2022-10-29T09:24:02.586Z,22.27
2022-10-29T09:26:33.737Z,26.48
2022-10-29T09:29:27.064Z,21.35
2022-10-29T09:32:23.478Z,27.90
2022-10-29T09:34:53.984Z,26.23
2022-10-29T09:37:44.389Z,18.35
2022-10-29T09:40:18.997Z,21.30
2022-10-29T09:42:49.490Z,20.98
2022-10-29T09:45:20.365Z,21.42
2022-10-29T09:48:00.888Z,27.70
2022-10-29T09:50:37.295Z,25.48
2022-10-29T09:53:07.477Z,28.80
2022-10-29T09:55:45.038Z,25.95
2022-10-29T09:58:18.522Z,24.77
2022-10-29T10:00:48.556Z,21.40
2022-10-29T10:03:24.719Z,31.50
2022-10-29T10:05:59.154Z,23.10
2022-10-29T10:08:29.292Z,28.00
2022-10-29T10:11:08.660Z,21.48
2022-10-29T10:13:39.609Z,27.30
2022-10-29T10:16:09.684Z,24.98
2022-10-29T10:21:15.379Z,27.88
2022-10-29T10:23:48.985Z,25.77
2022-10-29T10:26:29.040Z,24.35
2022-10-29T10:29:09.285Z,21.58
2022-10-29T10:31:39.451Z,41.22
2022-10-29T10:34:22.460Z,25.05
2022-10-29T10:37:11.135Z,29.33
2022-10-29T10:39:41.948Z,24.23
2022-10-29T10:42:18.224Z,32.88
2022-10-29T10:44:54.094Z,22.73
2022-10-29T10:47:24.759Z,20.50
2022-10-29T10:49:54.778Z,23.38
2022-10-29T10:52:28.340Z,25.10
2022-10-29T10:54:58.371Z,21.58
2022-10-29T10:57:29.889Z,31.80
2022-10-29T11:00:07.752Z,22.90
2022-10-29T11:02:37.944Z,24.63
2022-10-29T11:05:26.279Z,24.65
2022-10-29T11:07:57.083Z,19.73
2022-10-29T11:10:33.875Z,28.83
2022-10-29T11:13:04.157Z,22.85
2022-10-29T11:15:41.881Z,25.67
2022-10-29T11:18:18.674Z,28.15
2022-10-29T11:20:53.828Z,31.00
2022-10-29T11:23:33.463Z,31.00
2022-10-29T11:26:10.528Z,30.85
2022-10-29T11:28:47.500Z,38.45
2022-10-29T11:31:20.242Z,34.50
2022-10-29T11:33:53.003Z,27.45
2022-10-29T11:36:26.439Z,31.45
2022-10-29T11:38:58.850Z,27.98
2022-10-29T11:41:28.829Z,30.80
2022-10-29T11:43:58.980Z,24.08
2022-10-29T11:46:49.071Z,33.08
2022-10-29T11:49:42.390Z,27.33
2022-10-29T11:52:13.746Z,25.88
2022-10-29T11:55:22.336Z,30.65
2022-10-29T11:57:52.268Z,27.27
2022-10-29T12:00:22.951Z,26.77
2022-10-29T12:02:55.795Z,23.45
2022-10-29T12:05:44.174Z,28.83
2022-10-29T12:08:16.986Z,32.78
2022-10-29T12:10:53.243Z,29.13
2022-10-29T12:13:29.400Z,26.17
2022-10-29T12:16:02.687Z,42.30
2022-10-29T12:18:33.083Z,29.48
2022-10-29T12:21:14.074Z,38.10
2022-10-29T12:23:53.255Z,28.48
2022-10-29T12:26:26.509Z,29.15
2022-10-29T12:29:15.394Z,29.10
2022-10-29T12:31:54.721Z,32.38
2022-10-29T12:34:54.094Z,36.25
2022-10-29T12:37:33.868Z,35.63
2022-10-29T12:40:18.647Z,30.85
2022-10-29T12:42:49.574Z,35.78
2022-10-29T12:45:29.060Z,25.60
2022-10-29T12:48:05.078Z,24.42
2022-10-29T12:50:35.297Z,25.85
2022-10-29T12:53:24.336Z,25.20
2022-10-29T12:55:54.312Z,30.05
2022-10-29T12:58:42.385Z,32.05
2022-10-29T13:01:57.364Z,34.03
2022-10-29T13:04:31.070Z,21.63
2022-10-29T13:07:04.964Z,30.70
2022-10-29T13:09:39.732Z,22.92
2022-10-29T13:12:15.508Z,26.33
2022-10-29T13:14:52.737Z,22.65
2022-10-29T13:17:29.025Z,28.98
2022-10-29T13:20:02.590Z,28.63
2022-10-29T13:22:50.863Z,18.73
2022-10-29T13:25:30.210Z,26.05
2022-10-29T13:28:00.224Z,24.35
2022-10-29T13:30:30.586Z,28.42
2022-10-29T13:33:00.861Z,25.50
2022-10-29T13:35:30.938Z,22.83
2022-10-29T13:38:14.043Z,27.33
2022-10-29T13:40:45.126Z,28.55
2022-10-29T13:43:19.711Z,28.30
2022-10-29T13:45:51.377Z,43.00
2022-10-29T13:48:24.872Z,39.35
2022-10-29T13:50:54.799Z,26.85
2022-10-29T13:53:37.087Z,38.47
2022-10-29T13:56:09.744Z,36.22
2022-10-29T13:58:39.860Z,31.10
2022-10-29T14:01:14.175Z,26.45
2022-10-29T14:03:49.361Z,26.10
2022-10-29T14:06:21.596Z,31.17
2022-10-29T14:08:53.303Z,33.63
2022-10-29T14:11:27.660Z,26.05
2022-10-29T14:13:59.795Z,30.23
2022-10-29T14:16:30.651Z,28.83
2022-10-29T14:19:00.905Z,31.17
2022-10-29T14:21:31.550Z,36.70
2022-10-29T14:24:05.928Z,30.65
2022-10-29T14:26:36.705Z,26.23
2022-10-29T14:29:15.882Z,33.28
2022-10-29T14:31:46.237Z,24.75
2022-10-29T14:34:24.562Z,27.98
2022-10-29T14:36:55.939Z,28.17
2022-10-29T14:39:48.353Z,24.52
2022-10-29T14:42:32.264Z,24.95
2022-10-29T14:45:06.772Z,33.50
2022-10-29T14:47:37.784Z,29.58
2022-10-29T14:50:08.751Z,33.97
2022-10-29T14:52:43.402Z,24.98
2022-10-29T14:55:20.723Z,22.73
2022-10-29T14:57:53.917Z,31.65
2022-10-29T15:00:28.035Z,30.52
2022-10-29T15:02:58.687Z,28.38
2022-10-29T15:05:37.203Z,27.20
2022-10-29T15:08:08.400Z,20.60
2022-10-29T15:10:48.096Z,26.63
2022-10-29T15:13:33.657Z,18.65
2022-10-29T15:16:19.578Z,26.45
2022-10-29T15:18:51.646Z,22.50
2022-10-29T15:21:25.408Z,25.60
2022-10-29T15:23:58.445Z,30.40
2022-10-29T15:26:28.905Z,21.38
2022-10-29T15:28:59.181Z,27.08
2022-10-29T15:31:30.218Z,30.67
2022-10-29T15:34:09.761Z,38.33
2022-10-29T15:36:53.265Z,22.30
2022-10-29T15:39:27.859Z,23.77
2022-10-29T15:42:01.703Z,25.65
2022-10-29T15:44:41.853Z,23.83
2022-10-29T15:47:25.513Z,24.50
2022-10-29T15:49:55.843Z,26.63
2022-10-29T15:52:28.703Z,22.95
2022-10-29T15:54:59.636Z,31.02
2022-10-29T15:57:29.851Z,24.08
2022-10-29T16:00:00.122Z,30.92
2022-10-29T16:02:30.641Z,26.92
2022-10-29T16:05:02.138Z,26.25
2022-10-29T16:07:37.315Z,35.92
2022-10-29T16:10:07.946Z,40.40
2022-10-29T16:12:38.985Z,38.83
2022-10-29T16:15:12.544Z,36.65
2022-10-29T16:17:43.692Z,39.08
2022-10-29T16:20:20.825Z,40.72
2022-10-29T16:22:51.714Z,36.35
2022-10-29T16:25:26.402Z,49.67
2022-10-29T16:28:00.484Z,41.92
2022-10-29T16:30:31.991Z,52.10
2022-10-29T16:33:03.534Z,51.70
2022-10-29T16:35:34.746Z,44.75
2022-10-29T16:38:05.610Z,43.63
2022-10-29T16:40:38.447Z,41.15
2022-10-29T16:43:09.136Z,38.25
2022-10-29T16:45:39.844Z,31.27
2022-10-29T16:48:10.139Z,38.03
2022-10-29T16:50:41.266Z,40.22
2022-10-29T16:53:12.754Z,36.92
2022-10-29T16:55:47.878Z,30.27
2022-10-29T16:58:19.249Z,36.80
2022-10-29T17:00:50.123Z,30.20
2022-10-29T17:03:20.807Z,24.80
2022-10-29T17:05:52.090Z,20.58
2022-10-29T17:08:22.345Z,28.17
2022-10-29T17:10:52.819Z,28.15
2022-10-29T17:13:39.377Z,28.10
2022-10-29T17:16:10.276Z,25.95
2022-10-29T17:18:40.697Z,25.95
2022-10-29T17:21:10.736Z,26.92
2022-10-29T17:23:40.912Z,28.73
2022-10-29T17:26:11.396Z,24.13
2022-10-29T17:28:41.664Z,26.05
2022-10-29T17:31:12.724Z,26.75
2022-10-29T17:33:43.421Z,26.55
2022-10-29T17:36:14.598Z,29.38
2022-10-29T17:38:45.272Z,24.15
2022-10-29T17:41:15.700Z,25.83
2022-10-29T17:43:46.141Z,32.70
2022-10-29T17:46:19.385Z,22.27
2022-10-29T17:48:49.925Z,26.73
2022-10-29T17:51:20.115Z,28.05
2022-10-29T17:53:50.296Z,23.88
2022-10-29T17:56:20.473Z,36.80
2022-10-29T17:58:51.227Z,27.27
2022-10-29T18:01:21.686Z,38.38
2022-10-29T18:03:52.242Z,29.50
2022-10-29T18:06:22.721Z,38.10
2022-10-29T18:08:53.286Z,34.13
2022-10-29T18:11:24.039Z,41.83
2022-10-29T18:13:54.761Z,32.83
2022-10-29T18:16:27.007Z,32.35
2022-10-29T18:19:02.798Z,34.28
2022-10-29T18:21:34.326Z,44.10
2022-10-29T18:24:04.943Z,28.70
2022-10-29T18:26:40.975Z,27.65
2022-10-29T18:29:11.900Z,42.33
2022-10-29T18:31:46.164Z,38.35
2022-10-29T18:34:18.129Z,44.88
2022-10-29T18:36:48.922Z,41.97
2022-10-29T18:39:19.306Z,39.58
2022-10-29T18:41:49.459Z,39.67
2022-10-29T18:44:20.009Z,48.70
2022-10-29T18:46:50.425Z,44.85
2022-10-29T18:49:21.846Z,48.40
2022-10-29T18:51:52.179Z,45.53
2022-10-29T18:54:22.368Z,45.67
2022-10-29T18:56:52.548Z,46.80
2022-10-29T18:59:22.955Z,51.95
2022-10-29T19:01:53.437Z,60.80
2022-10-29T19:04:24.300Z,44.92
2022-10-29T19:06:54.564Z,49.25
2022-10-29T19:09:25.192Z,58.85
2022-10-29T19:11:58.444Z,53.65
2022-10-29T19:14:33.727Z,44.08
2022-10-29T19:17:05.752Z,41.65
2022-10-29T19:19:36.147Z,42.90
2022-10-29T19:22:10.849Z,36.42
2022-10-29T19:24:41.385Z,28.58
2022-10-29T19:27:11.484Z,33.35
2022-10-29T19:29:41.626Z,22.85
2022-10-29T19:32:11.655Z,33.00
2022-10-29T19:34:41.811Z,34.35
2022-10-29T19:37:11.869Z,41.47
2022-10-29T19:39:42.187Z,33.00
2022-10-29T19:42:12.223Z,31.38
2022-10-29T19:44:42.378Z,34.25
2022-10-29T19:47:12.512Z,43.58
2022-10-29T19:49:42.947Z,31.85
2022-10-29T19:52:13.071Z,32.50
2022-10-29T19:54:43.290Z,32.22
2022-10-29T19:57:13.369Z,32.75
2022-10-29T19:59:43.465Z,37.50
2022-10-29T20:02:13.622Z,29.75
2022-10-29T20:04:43.929Z,33.60
2022-10-29T20:07:14.600Z,38.97
2022-10-29T20:09:44.682Z,35.15
2022-10-29T20:12:14.907Z,31.83
2022-10-29T20:14:44.949Z,46.08
2022-10-29T20:17:15.378Z,34.60
2022-10-29T20:19:45.675Z,35.58
2022-10-29T20:22:15.666Z,33.33
2022-10-29T20:24:46.765Z,34.83
2022-10-29T20:27:16.795Z,42.85
2022-10-29T20:29:46.833Z,49.53
2022-10-29T20:32:16.828Z,49.55
2022-10-29T20:34:46.999Z,40.33
2022-10-29T20:37:17.125Z,40.00
2022-10-29T20:39:47.247Z,44.65
2022-10-29T20:42:17.669Z,36.92
2022-10-29T20:44:47.971Z,54.70
2022-10-29T20:47:18.158Z,40.25
2022-10-29T20:49:48.394Z,27.85
2022-10-29T20:52:18.571Z,28.83
2022-10-29T20:54:48.723Z,31.75
2022-10-29T20:57:19.050Z,17.35
2022-10-29T20:59:49.330Z,10.50
2022-10-29T21:02:19.515Z,16.65
2022-10-29T21:04:50.248Z,15.07
2022-10-29T21:07:20.451Z,15.55
2022-10-29T21:09:51.150Z,31.98
2022-10-29T21:12:21.897Z,24.88
2022-10-29T21:14:51.888Z,19.40
2022-10-29T21:17:23.454Z,21.35
2022-10-29T21:19:54.406Z,9.82
2022-10-29T21:22:26.043Z,12.40
2022-10-29T21:24:56.736Z,17.17
2022-10-29T21:27:29.429Z,15.32
2022-10-29T21:29:59.738Z,16.65
2022-10-29T21:32:30.095Z,14.85
2022-10-29T21:35:00.399Z,13.10
2022-10-29T21:37:30.884Z,16.27
2022-10-29T21:40:05.005Z,17.40
2022-10-29T21:42:36.417Z,26.60
2022-10-29T21:45:06.659Z,12.35
2022-10-29T21:47:36.660Z,16.08
2022-10-29T21:50:06.827Z,12.57
2022-10-29T21:52:37.117Z,11.52
2022-10-29T21:55:07.361Z,11.23
2022-10-29T21:57:38.518Z,11.02
2022-10-29T22:00:08.720Z,8.90
2022-10-29T22:02:38.519Z,10.60
2022-10-29T22:05:08.863Z,9.80
2022-10-29T22:07:38.881Z,12.80
2022-10-29T22:10:08.992Z,8.27
2022-10-29T22:12:39.038Z,3.95
2022-10-29T22:15:09.489Z,4.43
2022-10-29T22:17:39.543Z,6.43
2022-10-29T22:20:10.191Z,9.63
2022-10-29T22:22:40.152Z,7.20
2022-10-29T22:25:10.609Z,14.18
2022-10-29T22:27:40.734Z,5.10
2022-10-29T22:30:10.982Z,8.65
2022-10-29T22:32:41.444Z,7.50
2022-10-29T22:35:12.294Z,9.25
2022-10-29T22:37:42.579Z,13.30
2022-10-29T22:40:13.049Z,5.63
2022-10-29T22:42:43.771Z,7.50
2022-10-29T22:45:14.000Z,8.50
2022-10-29T22:47:44.021Z,11.50
2022-10-29T22:50:14.164Z,13.43
2022-10-29T22:52:44.519Z,12.20
2022-10-29T22:55:14.795Z,7.50
2022-10-29T22:57:44.895Z,7.45
2022-10-29T23:00:15.191Z,8.20
2022-10-29T23:02:46.265Z,6.28
2022-10-29T23:05:16.910Z,7.85
2022-10-29T23:07:47.199Z,9.50
2022-10-29T23:10:17.389Z,7.03
2022-10-29T23:12:47.717Z,8.73
2022-10-29T23:15:17.857Z,5.30
2022-10-29T23:17:48.426Z,10.63
2022-10-29T23:20:18.966Z,9.52
2022-10-29T23:22:49.371Z,10.70
2022-10-29T23:25:19.418Z,8.50
2022-10-29T23:27:49.456Z,11.63
2022-10-29T23:30:19.577Z,8.43
2022-10-29T23:32:49.600Z,11.38
2022-10-29T23:35:20.041Z,7.90
2022-10-29T23:37:50.890Z,10.05
2022-10-29T23:40:21.062Z,5.93
2022-10-29T23:42:51.542Z,7.20
2022-10-29T23:45:21.732Z,15.30
2022-10-29T23:47:51.854Z,5.75
2022-10-29T23:50:22.832Z,6.38
2022-10-29T23:52:52.976Z,7.60
2022-10-29T23:55:23.016Z,6.35
2022-10-29T23:57:53.126Z,9.07
